Portada
METAR-TAF:

METAR-TAF

Aeroports :

Lieja, Bèlgica

latitud: 50-39N, longitud: 005-27E, altitud: 186 m

Observació

L'informe es va fer fa 41 minuts, a les 21:50 UTC
Vent 6 kt del Est/Sud-Est
Temperatura 23°C
Humitat 47%
Pressió 1019 hPa
Visibilitat 10 km o més
sense núvols per sota de 1500 mi sense presència de cumulonimbus.

METAR: EBLG 242150Z 12006KT CAVOK 23/11 Q1019 NOSIG

Hora: 00:31 (22:31 UTC)

Pronòstic

L'informe es va fer fa 5 hores i 21 minuts, a les 17:10 UTC
Pronòstic vàlid del 24 a les 18 UTC al 25 a les 24 UTC
Vent 3 kt amb direcció variable
Visibilitat 10 km o més
sense núvols per sota de 1500 mi sense presència de cumulonimbus.

TAF: EBLG 241710Z 2418/2524 VRB03KT CAVOK

Observacions i pronòstics meteorològics de més de 4000 aeroports (METAR i TAF).

Les estacions disponibles són els punts grocs i vermells al mapa.

Posi el ratolí al punt desitjat per veure el nom de l'estació.

Feu clic per veure les observacions i els pronòstics meteorològics.

Per canviar el mapa: feu clic els botons verds amb una creu de color negre per apropar; al botó verd amb un guió per allunyar la imatge; o en les fletxes verdes per a mapes adjacents.


METAR-TAF: